createdAt,value
2023-04-15T00:01:47.038Z,71.46
2023-04-15T00:04:13.666Z,72.41
2023-04-15T00:06:40.136Z,73.07
2023-04-15T00:09:06.562Z,73.16
2023-04-15T00:11:33.276Z,78.01
2023-04-15T00:14:00.271Z,77.26
2023-04-15T00:16:26.762Z,73.18
2023-04-15T00:18:53.187Z,73.21
2023-04-15T00:21:19.604Z,73.46
2023-04-15T00:23:49.729Z,72.38
2023-04-15T00:26:16.263Z,71.46
2023-04-15T00:28:42.654Z,71.53
2023-04-15T00:31:09.786Z,71.64
2023-04-15T00:33:36.796Z,71.73
2023-04-15T00:36:04.070Z,71.35
2023-04-15T00:38:30.510Z,71.84
2023-04-15T00:40:57.326Z,71.85
2023-04-15T00:43:23.786Z,71.84
2023-04-15T00:45:53.650Z,73.56
2023-04-15T00:48:20.594Z,73.81
2023-04-15T00:50:47.069Z,73.30
2023-04-15T00:53:13.529Z,72.50
2023-04-15T00:55:40.122Z,72.70
2023-04-15T00:58:06.554Z,73.12
2023-04-15T01:00:33.008Z,73.30
2023-04-15T01:02:59.608Z,73.20
2023-04-15T01:05:27.073Z,73.76
2023-04-15T01:07:53.539Z,74.11
2023-04-15T01:10:20.024Z,73.96
2023-04-15T01:12:46.853Z,74.12
2023-04-15T01:15:13.589Z,74.21
2023-04-15T01:17:40.162Z,73.96
2023-04-15T01:20:10.041Z,73.49
2023-04-15T01:22:36.543Z,73.48
2023-04-15T01:25:13.085Z,74.89
2023-04-15T01:27:42.223Z,74.39
2023-04-15T01:30:10.498Z,73.91
2023-04-15T01:32:37.191Z,74.63
2023-04-15T01:35:03.734Z,74.46
2023-04-15T01:37:30.931Z,74.69
2023-04-15T01:39:58.036Z,74.22
2023-04-15T01:42:24.430Z,75.66
2023-04-15T01:44:51.071Z,75.44
2023-04-15T01:47:17.616Z,75.43
2023-04-15T01:49:44.015Z,74.97
2023-04-15T01:52:10.441Z,74.50
2023-04-15T01:54:36.855Z,75.11
2023-04-15T01:57:03.711Z,75.72
2023-04-15T01:59:31.910Z,74.91
2023-04-15T02:01:58.696Z,75.64
2023-04-15T02:04:25.144Z,76.07
2023-04-15T02:06:51.594Z,75.83
2023-04-15T02:09:18.005Z,75.83
2023-04-15T02:11:46.237Z,75.67
2023-04-15T02:14:12.681Z,75.24
2023-04-15T02:16:39.205Z,75.20
2023-04-15T02:19:05.754Z,76.06
2023-04-15T02:21:32.171Z,76.91
2023-04-15T02:23:58.576Z,76.54
2023-04-15T02:26:25.318Z,76.03
2023-04-15T02:28:51.765Z,77.21
2023-04-15T02:31:18.258Z,76.64
2023-04-15T02:33:45.092Z,76.61
2023-04-15T02:36:12.389Z,76.28
2023-04-15T02:38:40.730Z,76.48
2023-04-15T02:41:07.169Z,77.30
2023-04-15T02:43:33.607Z,77.81
2023-04-15T02:46:00.064Z,77.48
2023-04-15T02:48:26.991Z,77.01
2023-04-15T02:50:53.418Z,77.23
2023-04-15T02:53:20.077Z,77.27
2023-04-15T02:55:46.671Z,76.54
2023-04-15T02:58:13.178Z,75.93
2023-04-15T03:00:39.774Z,76.21
2023-04-15T03:03:06.858Z,77.00
2023-04-15T03:05:33.486Z,77.52
2023-04-15T03:08:01.156Z,77.32
2023-04-15T03:10:27.908Z,76.54
2023-04-15T03:12:54.291Z,76.64
2023-04-15T03:15:21.165Z,76.55
2023-04-15T03:17:49.447Z,76.47
2023-04-15T03:20:16.946Z,77.20
2023-04-15T03:22:43.469Z,77.88
2023-04-15T03:25:09.907Z,78.30
2023-04-15T03:27:36.351Z,77.94
2023-04-15T03:30:03.251Z,77.62
2023-04-15T03:32:29.808Z,77.52
2023-04-15T03:34:56.248Z,78.34
2023-04-15T03:37:22.659Z,78.60
2023-04-15T03:39:49.023Z,79.01
2023-04-15T03:42:15.629Z,78.83
2023-04-15T03:44:42.201Z,80.11
2023-04-15T03:47:08.642Z,79.06
2023-04-15T03:49:36.024Z,79.25
2023-04-15T03:52:02.428Z,79.30
2023-04-15T03:54:28.888Z,79.76
2023-04-15T03:56:55.975Z,79.12
2023-04-15T03:59:22.420Z,79.04
2023-04-15T04:01:48.907Z,78.52
2023-04-15T04:04:15.619Z,78.24
2023-04-15T04:06:42.101Z,78.91
2023-04-15T04:09:08.540Z,79.32
2023-04-15T04:11:35.224Z,79.51
2023-04-15T04:14:01.611Z,78.58
2023-04-15T04:16:28.109Z,79.76
2023-04-15T04:18:54.685Z,80.19
2023-04-15T04:21:21.624Z,79.15
2023-04-15T04:23:48.109Z,79.96
2023-04-15T04:26:14.517Z,80.31
2023-04-15T04:28:40.972Z,79.76
2023-04-15T04:31:07.786Z,79.64
2023-04-15T04:33:34.315Z,81.06
2023-04-15T04:36:00.715Z,80.91
2023-04-15T04:38:27.189Z,80.78
2023-04-15T04:40:54.013Z,80.04
2023-04-15T04:43:20.472Z,80.17
2023-04-15T04:45:47.295Z,79.71
2023-04-15T04:48:13.774Z,80.33
2023-04-15T04:50:40.409Z,80.41
2023-04-15T04:53:06.936Z,81.00
2023-04-15T04:55:33.417Z,80.14
2023-04-15T04:57:59.774Z,79.86
2023-04-15T05:00:26.169Z,80.80
2023-04-15T05:02:52.774Z,80.00
2023-04-15T05:05:19.387Z,80.35
2023-04-15T05:07:46.078Z,79.70
2023-04-15T05:10:12.526Z,80.37
2023-04-15T05:12:39.054Z,80.43
2023-04-15T05:15:06.694Z,80.72
2023-04-15T05:17:35.248Z,81.55
2023-04-15T05:20:02.780Z,80.78
2023-04-15T05:22:29.298Z,80.37
2023-04-15T05:24:56.019Z,80.39
2023-04-15T05:27:24.040Z,80.49
2023-04-15T05:29:50.518Z,79.89
2023-04-15T05:32:17.408Z,81.37
2023-04-15T05:34:43.874Z,80.49
2023-04-15T05:37:10.504Z,79.80
2023-04-15T05:39:36.956Z,80.01
2023-04-15T05:42:03.519Z,78.87
2023-04-15T05:44:30.076Z,78.11
2023-04-15T05:46:56.887Z,79.67
2023-04-15T05:49:23.520Z,77.70
2023-04-15T05:51:49.938Z,78.10
2023-04-15T05:54:18.696Z,77.11
2023-04-15T05:56:46.532Z,76.10
2023-04-15T05:59:13.115Z,75.96
2023-04-15T06:01:39.994Z,75.38
2023-04-15T06:04:06.807Z,74.84
2023-04-15T06:06:33.388Z,74.01
2023-04-15T06:08:59.965Z,74.07
2023-04-15T06:11:27.250Z,74.00
2023-04-15T06:13:53.624Z,73.15
2023-04-15T06:16:20.065Z,73.31
2023-04-15T06:18:46.485Z,72.65
2023-04-15T06:21:13.263Z,72.14
2023-04-15T06:23:41.178Z,72.11
2023-04-15T06:26:07.873Z,71.90
2023-04-15T06:28:34.540Z,71.67
2023-04-15T06:31:01.914Z,71.64
2023-04-15T06:33:28.651Z,71.51
2023-04-15T06:35:55.069Z,71.49
2023-04-15T06:38:21.587Z,71.60
2023-04-15T06:40:48.071Z,71.14
2023-04-15T06:43:15.245Z,70.76
2023-04-15T06:45:41.704Z,70.67
2023-04-15T06:48:08.135Z,70.37
2023-04-15T06:50:35.652Z,70.36
2023-04-15T06:53:02.169Z,70.14
2023-04-15T06:55:28.642Z,70.08
2023-04-15T06:57:55.357Z,69.59
2023-04-15T07:00:22.300Z,68.99
2023-04-15T07:02:48.797Z,68.60
2023-04-15T07:05:15.588Z,68.09
2023-04-15T07:07:42.240Z,67.93
2023-04-15T07:10:09.188Z,68.10
2023-04-15T07:12:35.890Z,66.88
2023-04-15T07:15:02.282Z,66.30
2023-04-15T07:17:28.760Z,66.43
2023-04-15T07:19:55.211Z,66.20
2023-04-15T07:22:21.622Z,65.96
2023-04-15T07:24:48.033Z,63.55
2023-04-15T07:27:14.481Z,64.62
2023-04-15T07:29:41.370Z,64.74
2023-04-15T07:32:07.818Z,63.92
2023-04-15T07:34:34.240Z,62.72
2023-04-15T07:37:00.715Z,61.78
2023-04-15T07:39:27.307Z,62.70
2023-04-15T07:41:53.723Z,61.94
2023-04-15T07:44:20.436Z,61.78
2023-04-15T07:46:48.004Z,62.75
2023-04-15T07:49:14.520Z,62.46
2023-04-15T07:51:41.002Z,62.60
2023-04-15T07:54:08.900Z,62.78
2023-04-15T07:56:35.332Z,62.41
2023-04-15T07:59:06.054Z,62.73
2023-04-15T08:01:35.762Z,62.99
2023-04-15T08:04:02.368Z,63.21
2023-04-15T08:06:29.189Z,63.45
2023-04-15T08:08:55.657Z,63.53
2023-04-15T08:11:23.093Z,63.82
2023-04-15T08:13:49.517Z,64.14
2023-04-15T08:16:27.845Z,63.21
2023-04-15T08:18:56.769Z,62.82
2023-04-15T08:21:23.823Z,62.78
2023-04-15T08:23:52.032Z,59.92
2023-04-15T08:26:19.373Z,57.14
2023-04-15T08:28:46.309Z,55.82
2023-04-15T08:31:14.747Z,55.88
2023-04-15T08:33:41.153Z,55.86
2023-04-15T08:36:07.792Z,54.20
2023-04-15T08:38:34.660Z,53.75
2023-04-15T08:41:04.868Z,55.23
2023-04-15T08:43:47.823Z,55.75
2023-04-15T08:46:15.589Z,55.45
2023-04-15T08:48:45.237Z,55.92
2023-04-15T08:51:15.979Z,56.74
2023-04-15T08:53:47.352Z,55.26
2023-04-15T08:56:16.598Z,55.67
2023-04-15T08:58:47.077Z,55.16
2023-04-15T09:01:13.708Z,54.53
2023-04-15T09:03:41.701Z,56.77
2023-04-15T09:06:08.701Z,56.69
2023-04-15T09:08:35.789Z,55.60
2023-04-15T09:11:03.261Z,55.37
2023-04-15T09:13:30.454Z,54.88
2023-04-15T09:15:58.447Z,54.81
2023-04-15T09:18:33.015Z,55.32
2023-04-15T09:21:14.138Z,55.02
2023-04-15T09:23:53.664Z,55.99
2023-04-15T09:26:20.415Z,55.20
2023-04-15T09:28:46.796Z,55.03
2023-04-15T09:31:13.263Z,54.23
2023-04-15T09:33:56.805Z,54.12
2023-04-15T09:36:25.019Z,54.22
2023-04-15T09:38:57.216Z,53.08
2023-04-15T09:41:24.924Z,52.03
2023-04-15T09:43:51.662Z,51.80
2023-04-15T09:46:18.439Z,50.94
2023-04-15T09:48:45.345Z,50.15
2023-04-15T09:51:11.882Z,50.18
2023-04-15T09:53:38.413Z,50.29
2023-04-15T09:56:07.770Z,51.23
2023-04-15T09:58:36.062Z,50.88
2023-04-15T10:01:11.570Z,50.37
2023-04-15T10:03:39.487Z,51.17
2023-04-15T10:06:06.136Z,51.84
2023-04-15T10:08:34.927Z,51.58
2023-04-15T10:11:05.502Z,50.48
2023-04-15T10:13:37.339Z,51.26
2023-04-15T10:16:15.782Z,50.97
2023-04-15T10:18:47.980Z,50.88
2023-04-15T10:21:18.354Z,51.18
2023-04-15T10:23:47.702Z,50.93
2023-04-15T10:26:20.326Z,51.33
2023-04-15T10:28:49.625Z,52.36
2023-04-15T10:31:18.509Z,52.20
2023-04-15T10:33:47.459Z,51.98
2023-04-15T10:36:14.412Z,51.85
2023-04-15T10:38:45.826Z,51.37
2023-04-15T10:41:13.267Z,51.13
2023-04-15T10:43:40.152Z,51.53
2023-04-15T10:46:06.987Z,50.86
2023-04-15T10:48:33.590Z,51.84
2023-04-15T10:51:05.038Z,51.56
2023-04-15T10:53:32.009Z,52.07
2023-04-15T10:55:58.672Z,52.19
2023-04-15T10:58:25.799Z,52.08
2023-04-15T11:00:53.789Z,52.16
2023-04-15T11:03:40.569Z,53.03
2023-04-15T11:06:07.499Z,52.91
2023-04-15T11:08:56.948Z,52.46
2023-04-15T11:11:23.447Z,53.51
2023-04-15T11:13:51.739Z,53.33
2023-04-15T11:16:18.497Z,53.71
2023-04-15T11:18:55.742Z,53.99
2023-04-15T11:21:25.352Z,54.28
2023-04-15T11:23:51.853Z,54.47
2023-04-15T11:26:18.316Z,54.70
2023-04-15T11:28:46.125Z,54.89
2023-04-15T11:31:17.707Z,55.26
2023-04-15T11:33:56.537Z,54.93
2023-04-15T11:36:29.715Z,54.79
2023-04-15T11:38:58.899Z,55.33
2023-04-15T11:41:25.368Z,55.70
2023-04-15T11:43:52.545Z,56.47
2023-04-15T11:46:19.209Z,56.47
2023-04-15T11:48:46.950Z,56.86
2023-04-15T11:51:14.551Z,56.38
2023-04-15T11:53:51.069Z,57.28
2023-04-15T11:56:19.598Z,57.84
2023-04-15T11:58:46.548Z,58.98
2023-04-15T12:01:13.660Z,59.00
2023-04-15T12:03:43.430Z,58.28
2023-04-15T12:06:23.432Z,58.78
2023-04-15T12:08:55.846Z,58.52
2023-04-15T12:11:30.949Z,58.11
2023-04-15T12:14:12.781Z,58.39
2023-04-15T12:16:48.567Z,58.39
2023-04-15T12:19:25.991Z,57.59
2023-04-15T12:21:58.792Z,57.55
2023-04-15T12:24:26.563Z,57.54
2023-04-15T12:26:57.976Z,57.20
2023-04-15T12:29:28.960Z,57.70
2023-04-15T12:31:57.626Z,58.17
2023-04-15T12:34:28.466Z,59.07
2023-04-15T12:36:55.530Z,59.83
2023-04-15T12:39:24.392Z,59.40
2023-04-15T12:41:51.531Z,60.48
2023-04-15T12:44:18.192Z,60.05
2023-04-15T12:46:46.808Z,60.09
2023-04-15T12:49:14.741Z,60.30
2023-04-15T12:51:41.193Z,60.63
2023-04-15T12:54:07.920Z,60.39
2023-04-15T12:56:34.350Z,60.95
2023-04-15T12:59:00.772Z,60.95
2023-04-15T13:01:27.304Z,60.75
2023-04-15T13:03:53.821Z,60.57
2023-04-15T13:06:20.279Z,61.22
2023-04-15T13:08:57.219Z,61.88
2023-04-15T13:11:25.365Z,61.67
2023-04-15T13:13:52.920Z,61.55
2023-04-15T13:16:19.584Z,61.52
2023-04-15T13:18:46.162Z,62.27
2023-04-15T13:21:13.274Z,60.85
2023-04-15T13:23:41.550Z,62.11
2023-04-15T13:26:08.350Z,61.14
2023-04-15T13:28:35.271Z,61.43
2023-04-15T13:31:01.823Z,61.52
2023-04-15T13:33:28.276Z,61.77
2023-04-15T13:35:54.737Z,61.89
2023-04-15T13:38:21.378Z,62.51
2023-04-15T13:40:47.833Z,62.15
2023-04-15T13:43:14.367Z,63.09
2023-04-15T13:45:41.136Z,63.29
2023-04-15T13:48:07.589Z,63.29
2023-04-15T13:50:33.996Z,63.74
2023-04-15T13:53:00.553Z,63.08
2023-04-15T13:55:27.964Z,64.04
2023-04-15T13:57:56.251Z,63.50
2023-04-15T14:00:22.678Z,63.80
2023-04-15T14:02:49.170Z,63.76
2023-04-15T14:05:15.707Z,64.20
2023-04-15T14:07:42.217Z,64.34
2023-04-15T14:10:09.030Z,64.56
2023-04-15T14:12:35.654Z,63.73
2023-04-15T14:15:02.331Z,64.39
2023-04-15T14:17:28.881Z,62.95
2023-04-15T14:19:55.338Z,63.38
2023-04-15T14:22:21.830Z,63.69
2023-04-15T14:24:49.154Z,63.71
2023-04-15T14:27:16.470Z,64.26
2023-04-15T14:29:42.919Z,64.40
2023-04-15T14:32:12.057Z,64.32
2023-04-15T14:34:39.713Z,65.04
2023-04-15T14:37:06.484Z,64.95
2023-04-15T14:39:33.066Z,65.19
2023-04-15T14:41:59.549Z,65.08
2023-04-15T14:44:26.061Z,64.82
2023-04-15T14:46:52.662Z,66.23
2023-04-15T14:49:19.712Z,66.46
2023-04-15T14:51:46.407Z,66.66
2023-04-15T14:54:12.832Z,65.36
2023-04-15T14:56:39.271Z,66.32
2023-04-15T14:59:06.071Z,66.00
2023-04-15T15:01:34.064Z,65.93
2023-04-15T15:04:00.946Z,66.28
2023-04-15T15:06:27.812Z,65.78
2023-04-15T15:08:54.241Z,65.93
2023-04-15T15:11:21.011Z,66.07
2023-04-15T15:13:47.471Z,66.29
2023-04-15T15:16:14.647Z,66.26
2023-04-15T15:18:41.346Z,66.04
2023-04-15T15:21:07.801Z,65.86
2023-04-15T15:23:34.332Z,66.44
2023-04-15T15:26:00.842Z,66.86
2023-04-15T15:28:27.285Z,66.41
2023-04-15T15:30:53.788Z,66.31
2023-04-15T15:33:20.846Z,66.89
2023-04-15T15:35:47.319Z,66.16
2023-04-15T15:38:13.761Z,66.15
2023-04-15T15:40:40.357Z,66.83
2023-04-15T15:43:06.767Z,66.27
2023-04-15T15:45:33.615Z,66.60
2023-04-15T15:48:01.539Z,66.80
2023-04-15T15:50:28.060Z,67.17
2023-04-15T15:52:55.133Z,66.70
2023-04-15T15:55:21.650Z,66.66
2023-04-15T15:57:48.039Z,66.32
2023-04-15T16:00:14.808Z,67.86
2023-04-15T16:05:11.800Z,67.33
2023-04-15T16:07:38.221Z,67.69
2023-04-15T16:10:05.102Z,67.26
2023-04-15T16:12:33.782Z,68.18
2023-04-15T16:15:01.339Z,67.12
2023-04-15T16:17:27.918Z,66.71
2023-04-15T16:19:59.121Z,66.12
2023-04-15T16:22:27.274Z,66.43
2023-04-15T16:24:53.847Z,66.92
2023-04-15T16:27:20.289Z,67.02
2023-04-15T16:29:46.799Z,67.02
2023-04-15T16:32:13.400Z,67.20
2023-04-15T16:34:41.264Z,67.04
2023-04-15T16:37:07.782Z,66.67
2023-04-15T16:39:34.251Z,66.87
2023-04-15T16:42:02.279Z,68.09
2023-04-15T16:44:28.986Z,67.97
2023-04-15T16:46:55.780Z,68.20
2023-04-15T16:49:22.315Z,68.54
2023-04-15T16:51:48.713Z,68.67
2023-04-15T16:54:15.276Z,68.11
2023-04-15T16:56:41.787Z,69.63
2023-04-15T16:59:08.284Z,70.74
2023-04-15T17:01:34.868Z,69.83
2023-04-15T17:04:01.506Z,69.58
2023-04-15T17:06:28.216Z,70.21
2023-04-15T17:08:54.598Z,69.89
2023-04-15T17:11:21.031Z,70.31
2023-04-15T17:13:47.573Z,70.06
2023-04-15T17:16:14.088Z,70.40
2023-04-15T17:18:40.712Z,70.33
2023-04-15T17:21:07.158Z,71.00
2023-04-15T17:23:33.655Z,70.79
2023-04-15T17:26:00.139Z,71.69
2023-04-15T17:28:26.721Z,71.85
2023-04-15T17:30:53.204Z,71.66
2023-04-15T17:33:54.049Z,73.13
2023-04-15T17:36:06.368Z,71.97
2023-04-15T17:38:32.793Z,72.38
2023-04-15T17:40:59.277Z,73.07
2023-04-15T17:43:25.761Z,72.98
2023-04-15T17:45:52.243Z,73.38
2023-04-15T17:48:18.702Z,73.46
2023-04-15T17:50:45.094Z,75.88
2023-04-15T17:53:11.732Z,74.97
2023-04-15T17:55:38.362Z,75.71
2023-04-15T17:58:04.828Z,76.48
2023-04-15T18:00:31.358Z,77.02
2023-04-15T18:02:57.959Z,77.04
2023-04-15T18:05:24.548Z,77.14
2023-04-15T18:07:53.992Z,77.12
2023-04-15T18:10:20.741Z,75.57
2023-04-15T18:12:48.083Z,77.52
2023-04-15T18:15:14.589Z,77.08
2023-04-15T18:17:41.026Z,78.16
2023-04-15T18:20:07.959Z,78.82
2023-04-15T18:22:34.452Z,79.20
2023-04-15T18:25:04.190Z,78.72
2023-04-15T18:27:34.572Z,79.99
2023-04-15T18:30:01.167Z,78.19
2023-04-15T18:32:31.673Z,80.23
2023-04-15T18:34:58.376Z,79.07
2023-04-15T18:37:25.169Z,80.07
2023-04-15T18:39:51.703Z,82.73
2023-04-15T18:42:18.245Z,82.54
2023-04-15T18:44:44.688Z,83.61
2023-04-15T18:47:11.181Z,82.14
2023-04-15T18:49:37.655Z,84.03
2023-04-15T18:52:04.185Z,83.91
2023-04-15T18:54:30.662Z,85.29
2023-04-15T18:56:57.277Z,82.68
2023-04-15T18:59:29.280Z,85.55
2023-04-15T19:01:58.185Z,83.85
2023-04-15T19:04:24.721Z,83.33
2023-04-15T19:06:51.470Z,82.83
2023-04-15T19:09:18.023Z,83.07
2023-04-15T19:11:44.476Z,83.53
2023-04-15T19:14:11.250Z,83.53
2023-04-15T19:16:37.838Z,84.81
2023-04-15T19:19:06.416Z,87.27
2023-04-15T19:21:33.229Z,86.43
2023-04-15T19:24:00.771Z,87.33
2023-04-15T19:26:27.273Z,89.53
2023-04-15T19:28:56.458Z,87.07
2023-04-15T19:31:23.033Z,88.13
2023-04-15T19:33:49.600Z,89.39
2023-04-15T19:36:18.043Z,89.96
2023-04-15T19:38:44.521Z,92.13
2023-04-15T19:41:11.054Z,90.55
2023-04-15T19:43:37.470Z,91.46
2023-04-15T19:46:03.952Z,92.57
2023-04-15T19:48:30.561Z,94.31
2023-04-15T19:50:57.089Z,93.93
2023-04-15T19:53:25.502Z,91.56
2023-04-15T19:55:52.022Z,94.26
2023-04-15T19:58:18.495Z,93.62
2023-04-15T20:00:44.952Z,95.85
2023-04-15T20:03:11.590Z,94.88
2023-04-15T20:05:38.173Z,93.82
2023-04-15T20:08:04.774Z,91.80
2023-04-15T20:10:31.956Z,93.18
2023-04-15T20:12:58.492Z,93.22
2023-04-15T20:15:25.012Z,93.21
2023-04-15T20:17:51.583Z,93.69
2023-04-15T20:20:18.344Z,94.28
2023-04-15T20:22:44.882Z,92.66
2023-04-15T20:25:11.430Z,92.54
2023-04-15T20:27:37.959Z,91.38
2023-04-15T20:30:05.098Z,93.12
2023-04-15T20:32:35.858Z,93.02
2023-04-15T20:35:04.507Z,92.68
2023-04-15T20:37:33.318Z,94.94
2023-04-15T20:40:00.997Z,93.44
2023-04-15T20:42:27.553Z,91.30
2023-04-15T20:44:54.078Z,94.80
2023-04-15T20:47:20.745Z,93.98
2023-04-15T20:49:47.456Z,93.62
2023-04-15T20:52:13.964Z,93.62
2023-04-15T20:54:40.748Z,95.35
2023-04-15T20:57:07.182Z,94.18
2023-04-15T20:59:34.816Z,95.53
2023-04-15T21:02:01.771Z,94.13
2023-04-15T21:04:28.334Z,95.19
2023-04-15T21:06:54.793Z,95.07
2023-04-15T21:09:21.196Z,96.67
2023-04-15T21:14:18.336Z,96.89
2023-04-15T21:16:45.073Z,97.01
2023-04-15T21:19:11.522Z,94.25
2023-04-15T21:21:37.966Z,94.39
2023-04-15T21:24:06.167Z,96.58
2023-04-15T21:26:32.616Z,96.14
2023-04-15T21:28:59.047Z,96.91
2023-04-15T21:31:25.572Z,95.76
2023-04-15T21:33:51.998Z,95.38
2023-04-15T21:36:18.398Z,94.38
2023-04-15T21:38:44.793Z,94.19
2023-04-15T21:41:11.298Z,97.04
2023-04-15T21:43:37.843Z,97.71
2023-04-15T21:46:23.443Z,96.60
2023-04-15T21:48:51.528Z,95.64
2023-04-15T21:51:17.933Z,95.59
2023-04-15T21:53:44.463Z,96.44
2023-04-15T21:56:11.116Z,94.41
2023-04-15T21:58:37.680Z,94.95
2023-04-15T22:01:04.872Z,94.98
2023-04-15T22:03:36.375Z,95.80
2023-04-15T22:06:03.717Z,96.49
2023-04-15T22:08:36.060Z,95.08
2023-04-15T22:11:08.392Z,95.94
2023-04-15T22:13:35.301Z,94.35
2023-04-15T22:16:02.152Z,95.19
2023-04-15T22:18:28.552Z,95.48
2023-04-15T22:20:56.170Z,95.87
2023-04-15T22:23:22.586Z,96.13
2023-04-15T22:25:48.976Z,95.92
2023-04-15T22:28:15.394Z,95.44
2023-04-15T22:30:42.520Z,93.75
2023-04-15T22:33:09.800Z,94.20
2023-04-15T22:35:37.399Z,93.65
2023-04-15T22:38:04.753Z,95.16
2023-04-15T22:40:31.286Z,95.50
2023-04-15T22:42:57.816Z,96.26
2023-04-15T22:45:24.312Z,95.45
2023-04-15T22:47:50.822Z,94.08
2023-04-15T22:50:17.602Z,94.36
2023-04-15T22:52:46.192Z,93.99
2023-04-15T22:55:13.142Z,95.01
2023-04-15T22:57:39.856Z,95.28
2023-04-15T23:00:07.395Z,94.82
2023-04-15T23:02:34.654Z,94.23
2023-04-15T23:05:02.019Z,93.40
2023-04-15T23:07:31.594Z,92.83
2023-04-15T23:10:00.221Z,94.37
2023-04-15T23:12:27.057Z,93.60
2023-04-15T23:14:53.433Z,93.34
2023-04-15T23:17:19.894Z,92.66
2023-04-15T23:19:46.339Z,92.72
2023-04-15T23:22:12.769Z,93.49
2023-04-15T23:24:39.185Z,92.24
2023-04-15T23:27:05.897Z,93.53
2023-04-15T23:29:32.296Z,92.78
2023-04-15T23:31:58.757Z,93.22
2023-04-15T23:34:25.507Z,92.90
2023-04-15T23:36:51.944Z,92.62
2023-04-15T23:39:18.404Z,91.99
2023-04-15T23:41:44.904Z,91.82
2023-04-15T23:44:11.448Z,92.17
2023-04-15T23:46:37.867Z,93.55
2023-04-15T23:49:04.357Z,93.18
2023-04-15T23:51:30.763Z,93.06
2023-04-15T23:53:57.166Z,93.75
2023-04-15T23:56:23.565Z,94.00
2023-04-15T23:58:50.058Z,93.13
